Terminal Aerodrome Forecast
Issued by NWS Paducah, KY

Home | Current Version | Previous Version | Text Only | Print | Product List | Glossary On
Versions: 1 2 3 4 5 6 7 8 9 10 11 12 13 14 15
000
FTUS43 KPAH 152101 AAA
TAFEVV
TAF AMD
KEVV 152101Z 1521/1618 33010KT P6SM SCT028
      TEMPO 1521/1523 BKN028
     FM160000 33007KT P6SM SKC
     FM160600 35005KT P6SM SKC=

USA.gov is the U.S. government's official web portal to all federal, state and local government web resources and services.